createdAt,value
2023-04-20T00:01:39.189Z,24.97
2023-04-20T00:04:06.464Z,29.33
2023-04-20T00:06:58.070Z,31.20
2023-04-20T00:09:25.421Z,27.77
2023-04-20T00:11:52.770Z,25.33
2023-04-20T00:18:07.574Z,32.73
2023-04-20T00:20:55.529Z,33.63
2023-04-20T00:23:32.233Z,25.83
2023-04-20T00:26:02.186Z,30.00
2023-04-20T00:28:55.794Z,27.87
2023-04-20T00:31:25.858Z,30.93
2023-04-20T00:33:53.075Z,28.87
2023-04-20T00:36:20.372Z,31.23
2023-04-20T00:38:47.541Z,30.37
2023-04-20T00:41:17.681Z,28.93
2023-04-20T00:43:54.513Z,30.10
2023-04-20T00:46:22.277Z,29.57
2023-04-20T00:48:52.462Z,35.03
2023-04-20T00:51:23.522Z,30.00
2023-04-20T00:53:50.774Z,27.87
2023-04-20T00:56:19.242Z,30.40
2023-04-20T00:58:47.026Z,28.80
2023-04-20T01:01:17.672Z,31.03
2023-04-20T01:03:45.825Z,30.73
2023-04-20T01:06:16.489Z,29.43
2023-04-20T01:08:50.619Z,28.70
2023-04-20T01:11:18.229Z,29.73
2023-04-20T01:13:45.532Z,33.23
2023-04-20T01:16:13.264Z,32.47
2023-04-20T01:18:44.546Z,31.03
2023-04-20T01:21:12.481Z,36.97
2023-04-20T01:23:39.601Z,31.90
2023-04-20T01:26:07.928Z,30.97
2023-04-20T01:28:35.209Z,33.10
2023-04-20T01:31:03.457Z,33.47
2023-04-20T01:33:30.757Z,34.50
2023-04-20T01:35:57.929Z,38.93
2023-04-20T01:38:26.093Z,38.10
2023-04-20T01:40:53.628Z,38.50
2023-04-20T01:43:21.144Z,37.90
2023-04-20T01:45:48.364Z,36.47
2023-04-20T01:48:15.807Z,36.83
2023-04-20T01:50:43.007Z,35.97
2023-04-20T01:53:10.588Z,36.57
2023-04-20T01:55:37.777Z,37.67
2023-04-20T01:58:05.115Z,39.97
2023-04-20T02:00:32.290Z,39.13
2023-04-20T02:02:59.592Z,38.67
2023-04-20T02:05:27.077Z,38.53
2023-04-20T02:07:54.202Z,41.80
2023-04-20T02:10:21.389Z,36.63
2023-04-20T02:12:49.731Z,39.63
2023-04-20T02:15:16.924Z,38.40
2023-04-20T02:17:44.356Z,41.70
2023-04-20T02:20:12.644Z,44.17
2023-04-20T02:22:39.876Z,39.10
2023-04-20T02:25:07.766Z,44.63
2023-04-20T02:27:34.938Z,41.17
2023-04-20T02:30:02.123Z,40.20
2023-04-20T02:32:29.559Z,40.00
2023-04-20T02:34:56.836Z,41.50
2023-04-20T02:37:23.964Z,43.73
2023-04-20T02:39:51.200Z,42.23
2023-04-20T02:42:18.567Z,45.47
2023-04-20T02:44:45.805Z,42.27
2023-04-20T02:47:13.093Z,44.10
2023-04-20T02:49:40.260Z,39.43
2023-04-20T02:52:07.440Z,42.80
2023-04-20T02:54:34.714Z,38.07
2023-04-20T02:57:03.422Z,36.73
2023-04-20T02:59:30.632Z,43.07
2023-04-20T03:01:57.903Z,38.23
2023-04-20T03:04:26.189Z,38.50
2023-04-20T03:06:53.758Z,40.80
2023-04-20T03:09:21.416Z,45.00
2023-04-20T03:11:48.772Z,38.27
2023-04-20T03:14:16.160Z,45.60
2023-04-20T03:16:43.930Z,37.33
2023-04-20T03:19:11.187Z,41.40
2023-04-20T03:21:38.429Z,41.83
2023-04-20T03:24:07.187Z,35.17
2023-04-20T03:26:34.325Z,43.30
2023-04-20T03:29:01.961Z,38.50
2023-04-20T03:31:29.169Z,38.57
2023-04-20T03:33:56.620Z,43.03
2023-04-20T03:36:24.023Z,38.63
2023-04-20T03:38:51.176Z,39.53
2023-04-20T03:41:18.388Z,38.77
2023-04-20T03:43:45.653Z,38.07
2023-04-20T03:46:12.974Z,41.33
2023-04-20T03:48:40.586Z,39.60
2023-04-20T03:51:07.809Z,39.77
2023-04-20T03:53:34.956Z,41.47
2023-04-20T03:56:02.201Z,36.53
2023-04-20T03:58:29.379Z,40.60
2023-04-20T04:01:09.594Z,39.73
2023-04-20T04:03:37.329Z,36.70
2023-04-20T04:06:05.076Z,40.30
2023-04-20T04:08:32.506Z,41.50
2023-04-20T04:11:00.686Z,48.23
2023-04-20T04:13:27.993Z,37.17
2023-04-20T04:15:55.202Z,37.30
2023-04-20T04:18:22.997Z,38.63
2023-04-20T04:20:50.247Z,39.17
2023-04-20T04:23:17.728Z,40.27
2023-04-20T04:25:46.218Z,41.67
2023-04-20T04:28:14.838Z,38.43
2023-04-20T04:30:42.271Z,44.83
2023-04-20T04:33:10.230Z,37.77
2023-04-20T04:35:37.968Z,37.00
2023-04-20T04:38:05.295Z,41.83
2023-04-20T04:40:33.791Z,37.00
2023-04-20T04:43:01.207Z,43.50
2023-04-20T04:45:28.518Z,40.50
2023-04-20T04:51:27.905Z,38.83
2023-04-20T04:53:57.443Z,45.33
2023-04-20T04:56:24.842Z,37.50
2023-04-20T04:58:57.045Z,40.53
2023-04-20T05:01:27.777Z,41.87
2023-04-20T05:04:15.997Z,42.83
2023-04-20T05:07:00.014Z,44.67
2023-04-20T05:10:08.735Z,41.03
2023-04-20T05:12:32.279Z,42.80
2023-04-20T05:15:06.013Z,44.97
2023-04-20T05:17:49.042Z,47.20
2023-04-20T05:20:34.219Z,43.60
2023-04-20T05:23:01.776Z,45.43
2023-04-20T05:25:35.673Z,43.37
2023-04-20T05:28:28.509Z,42.20
2023-04-20T05:30:59.097Z,42.50
2023-04-20T05:33:26.341Z,44.07
2023-04-20T05:36:06.040Z,44.90
2023-04-20T05:38:33.307Z,49.43
2023-04-20T05:41:02.478Z,47.30
2023-04-20T05:43:47.718Z,51.03
2023-04-20T05:46:14.916Z,44.67
2023-04-20T05:48:48.395Z,51.53
2023-04-20T05:51:22.574Z,45.83
2023-04-20T06:01:11.639Z,44.50
2023-04-20T06:03:42.129Z,39.17
2023-04-20T06:06:13.646Z,45.90
2023-04-20T06:08:46.500Z,42.00
2023-04-20T06:11:32.007Z,54.13
2023-04-20T06:14:07.598Z,43.33
2023-04-20T06:16:34.915Z,49.20
2023-04-20T06:19:04.599Z,40.30
2023-04-20T06:21:34.191Z,43.00
2023-04-20T06:24:11.732Z,38.23
2023-04-20T06:26:39.387Z,36.03
2023-04-20T06:29:06.925Z,38.60
2023-04-20T06:31:34.499Z,36.43
2023-04-20T06:34:02.586Z,36.53
2023-04-20T06:36:47.451Z,33.57
2023-04-20T06:41:58.598Z,39.13
2023-04-20T06:44:59.600Z,33.17
2023-04-20T06:47:33.801Z,37.47
2023-04-20T06:50:11.104Z,39.27
2023-04-20T06:52:47.919Z,35.93
2023-04-20T07:09:56.011Z,32.83
2023-04-20T07:15:14.005Z,30.50
2023-04-20T07:27:08.993Z,28.30
2023-04-20T07:30:04.233Z,30.37
2023-04-20T07:32:36.310Z,26.37
2023-04-20T07:35:04.080Z,38.42
2023-04-20T07:37:32.439Z,30.85
2023-04-20T07:43:12.679Z,23.80
2023-04-20T07:45:49.379Z,23.17
2023-04-20T07:48:17.926Z,24.77
2023-04-20T07:50:46.445Z,25.65
2023-04-20T07:53:36.020Z,22.83
2023-04-20T07:56:11.801Z,26.55
2023-04-20T07:59:15.949Z,22.00
2023-04-20T08:05:14.987Z,23.23
2023-04-20T08:07:45.765Z,18.80
2023-04-20T08:10:13.291Z,22.50
2023-04-20T08:12:52.018Z,20.60
2023-04-20T08:15:33.789Z,20.23
2023-04-20T08:18:01.364Z,19.63
2023-04-20T08:20:28.915Z,18.92
2023-04-20T08:23:11.351Z,21.80
2023-04-20T08:25:43.196Z,22.50
2023-04-20T08:28:15.740Z,23.58
2023-04-20T08:30:59.699Z,23.02
2023-04-20T08:33:42.429Z,19.38
2023-04-20T08:36:19.806Z,17.88
2023-04-20T08:38:58.749Z,19.38
2023-04-20T08:41:26.678Z,18.58
2023-04-20T08:43:53.837Z,15.32
2023-04-20T08:46:26.316Z,19.08
2023-04-20T08:48:55.915Z,17.17
2023-04-20T08:51:32.640Z,15.20
2023-04-20T08:54:06.892Z,24.30
2023-04-20T08:56:38.010Z,16.70
2023-04-20T08:59:05.800Z,15.65
2023-04-20T09:01:41.944Z,17.55
2023-04-20T09:04:23.161Z,18.80
2023-04-20T09:06:57.751Z,16.20
2023-04-20T09:09:27.058Z,16.15
2023-04-20T09:12:02.498Z,14.93
2023-04-20T09:14:30.155Z,15.63
2023-04-20T09:17:02.094Z,15.38
2023-04-20T09:19:30.731Z,15.82
2023-04-20T09:22:03.953Z,16.40
2023-04-20T09:24:35.239Z,18.02
2023-04-20T09:27:03.525Z,18.55
2023-04-20T09:29:31.328Z,18.10
2023-04-20T09:31:58.652Z,17.35
2023-04-20T09:34:26.670Z,19.05
2023-04-20T09:36:57.566Z,16.00
2023-04-20T09:39:25.212Z,16.25
2023-04-20T09:41:53.451Z,13.32
2023-04-20T09:44:21.252Z,15.55
2023-04-20T09:46:48.444Z,17.98
2023-04-20T09:49:15.825Z,22.55
2023-04-20T09:51:47.071Z,18.10
2023-04-20T09:54:16.092Z,16.05
2023-04-20T09:56:43.634Z,14.90
2023-04-20T09:59:10.873Z,17.25
2023-04-20T10:01:38.470Z,12.77
2023-04-20T10:04:14.617Z,17.83
2023-04-20T10:06:52.759Z,15.23
2023-04-20T10:09:24.660Z,14.32
2023-04-20T10:11:54.557Z,14.35
2023-04-20T10:14:26.453Z,14.05
2023-04-20T10:17:01.920Z,17.67
2023-04-20T10:19:42.136Z,14.50
2023-04-20T10:22:11.637Z,11.25
2023-04-20T10:24:39.328Z,13.48
2023-04-20T10:27:22.406Z,12.75
2023-04-20T10:29:49.923Z,13.63
2023-04-20T10:32:27.596Z,13.50
2023-04-20T10:35:05.079Z,11.07
2023-04-20T10:37:32.797Z,13.95
2023-04-20T10:40:00.581Z,12.43
2023-04-20T10:42:29.795Z,13.75
2023-04-20T10:44:57.147Z,12.02
2023-04-20T10:47:28.429Z,12.13
2023-04-20T10:49:55.878Z,17.88
2023-04-20T10:52:36.866Z,18.17
2023-04-20T10:55:04.954Z,13.60
2023-04-20T10:57:32.206Z,11.88
2023-04-20T10:59:59.379Z,12.70
2023-04-20T11:02:28.286Z,11.10
2023-04-20T11:05:00.878Z,9.13
2023-04-20T11:07:28.274Z,11.15
2023-04-20T11:09:58.525Z,11.73
2023-04-20T11:12:25.780Z,12.77
2023-04-20T11:14:54.084Z,11.65
2023-04-20T11:17:21.787Z,12.57
2023-04-20T11:19:49.163Z,11.73
2023-04-20T11:22:25.923Z,9.40
2023-04-20T11:25:05.517Z,8.88
2023-04-20T11:27:32.728Z,10.02
2023-04-20T11:30:00.010Z,9.85
2023-04-20T11:32:27.745Z,9.98
2023-04-20T11:35:06.148Z,7.90
2023-04-20T11:37:34.825Z,7.63
2023-04-20T11:40:03.499Z,8.73
2023-04-20T11:42:30.752Z,9.48
2023-04-20T11:44:57.968Z,9.10
2023-04-20T11:47:25.361Z,8.23
2023-04-20T11:49:52.544Z,15.15
2023-04-20T11:52:19.707Z,10.60
2023-04-20T11:54:46.954Z,7.82
2023-04-20T11:57:14.130Z,8.05
2023-04-20T11:59:43.015Z,8.65
2023-04-20T12:02:11.024Z,11.95
2023-04-20T12:04:39.200Z,9.75
2023-04-20T12:07:06.695Z,7.20
2023-04-20T12:09:38.379Z,9.75
2023-04-20T12:12:06.350Z,11.50
2023-04-20T12:14:33.944Z,9.48
2023-04-20T12:17:02.000Z,15.57
2023-04-20T12:19:29.687Z,8.68
2023-04-20T12:21:57.048Z,8.30
2023-04-20T12:24:24.482Z,11.75
2023-04-20T12:26:54.751Z,9.02
2023-04-20T12:29:22.118Z,13.60
2023-04-20T12:31:49.356Z,10.20
2023-04-20T12:34:17.055Z,8.80
2023-04-20T12:36:44.648Z,6.32
2023-04-20T12:39:11.982Z,7.20
2023-04-20T12:41:39.356Z,9.57
2023-04-20T12:44:15.923Z,8.48
2023-04-20T12:46:43.482Z,11.10
2023-04-20T12:49:12.882Z,8.27
2023-04-20T12:51:40.797Z,9.90
2023-04-20T12:54:08.571Z,12.02
2023-04-20T12:56:35.775Z,9.40
2023-04-20T12:59:03.712Z,12.50
2023-04-20T13:01:31.128Z,13.25
2023-04-20T13:03:58.716Z,10.55
2023-04-20T13:06:26.718Z,9.85
2023-04-20T13:08:54.002Z,9.75
2023-04-20T13:11:22.182Z,12.25
2023-04-20T13:13:49.354Z,13.07
2023-04-20T13:16:16.776Z,13.57
2023-04-20T13:18:44.100Z,16.63
2023-04-20T13:21:11.196Z,11.65
2023-04-20T13:23:39.916Z,12.45
2023-04-20T13:26:08.182Z,9.60
2023-04-20T13:28:35.817Z,14.13
2023-04-20T13:31:03.080Z,13.65
2023-04-20T13:33:30.300Z,12.15
2023-04-20T13:35:57.649Z,13.32
2023-04-20T13:38:24.907Z,11.18
2023-04-20T13:40:52.089Z,12.77
2023-04-20T13:43:21.457Z,9.13
2023-04-20T13:45:49.179Z,17.88
2023-04-20T13:48:16.389Z,10.48
2023-04-20T13:50:43.631Z,9.45
2023-04-20T13:53:10.776Z,14.07
2023-04-20T13:55:38.657Z,10.80
2023-04-20T13:58:05.855Z,11.27
2023-04-20T14:00:34.684Z,14.85
2023-04-20T14:03:02.610Z,11.48
2023-04-20T14:05:30.052Z,7.38
2023-04-20T14:08:01.726Z,14.52
2023-04-20T14:13:32.017Z,10.18
2023-04-20T14:15:59.521Z,20.00
2023-04-20T14:18:26.931Z,7.40
2023-04-20T14:20:54.676Z,14.88
2023-04-20T14:23:21.872Z,11.93
2023-04-20T14:25:49.054Z,15.50
2023-04-20T14:28:17.722Z,20.15
2023-04-20T14:30:51.479Z,10.43
2023-04-20T14:33:18.684Z,8.23
2023-04-20T14:35:46.482Z,11.43
2023-04-20T14:38:13.662Z,17.58
2023-04-20T14:40:41.450Z,15.85
2023-04-20T14:43:08.601Z,13.63
2023-04-20T14:45:35.787Z,13.20
2023-04-20T14:48:03.150Z,14.90
2023-04-20T14:50:31.923Z,16.23
2023-04-20T14:52:59.096Z,16.52
2023-04-20T14:55:26.389Z,13.70
2023-04-20T14:57:55.442Z,14.65
2023-04-20T15:00:28.215Z,13.30
2023-04-20T15:02:56.880Z,20.65
2023-04-20T15:05:25.450Z,16.92
2023-04-20T15:07:52.709Z,13.38
2023-04-20T15:10:20.663Z,23.75
2023-04-20T15:12:48.679Z,10.35
2023-04-20T15:15:16.743Z,16.63
2023-04-20T15:17:43.981Z,18.25
2023-04-20T15:20:11.390Z,16.98
2023-04-20T15:22:38.659Z,18.48
2023-04-20T15:25:06.227Z,9.25
2023-04-20T15:27:33.655Z,14.02
2023-04-20T15:30:01.172Z,16.95
2023-04-20T15:32:30.351Z,10.35
2023-04-20T15:34:57.570Z,12.93
2023-04-20T15:37:25.253Z,20.90
2023-04-20T15:39:52.837Z,16.00
2023-04-20T15:42:19.988Z,23.30
2023-04-20T15:44:47.199Z,12.70
2023-04-20T15:47:14.405Z,21.70
2023-04-20T15:49:42.216Z,18.30
2023-04-20T15:52:09.346Z,14.00
2023-04-20T15:54:37.290Z,9.70
2023-04-20T15:57:04.771Z,18.85
2023-04-20T15:59:32.380Z,23.63
2023-04-20T16:01:59.693Z,18.98
2023-04-20T16:04:27.100Z,17.60
2023-04-20T16:06:54.681Z,14.70
2023-04-20T16:09:23.563Z,16.27
2023-04-20T16:11:51.240Z,14.75
2023-04-20T16:14:18.710Z,15.82
2023-04-20T16:16:46.254Z,16.30
2023-04-20T16:19:14.598Z,16.52
2023-04-20T16:21:42.047Z,24.17
2023-04-20T16:24:09.762Z,23.00
2023-04-20T16:26:36.993Z,37.47
2023-04-20T16:29:04.283Z,19.17
2023-04-20T16:31:31.691Z,17.05
2023-04-20T16:33:59.143Z,19.35
2023-04-20T16:36:27.080Z,14.05
2023-04-20T16:38:54.320Z,21.85
2023-04-20T16:41:21.885Z,25.58
2023-04-20T16:43:49.042Z,17.17
2023-04-20T16:46:22.236Z,21.30
2023-04-20T16:48:50.856Z,14.95
2023-04-20T16:51:18.031Z,14.18
2023-04-20T16:53:45.450Z,21.80
2023-04-20T16:56:12.874Z,15.93
2023-04-20T16:58:40.137Z,18.42
2023-04-20T17:01:08.579Z,16.90
2023-04-20T17:03:36.443Z,17.20
2023-04-20T17:06:07.939Z,24.52
2023-04-20T17:08:35.302Z,21.52
2023-04-20T17:11:02.482Z,16.10
2023-04-20T17:13:29.651Z,17.98
2023-04-20T17:15:56.951Z,14.63
2023-04-20T17:18:24.159Z,21.23
2023-04-20T17:20:52.304Z,19.13
2023-04-20T17:23:20.183Z,22.08
2023-04-20T17:25:47.460Z,27.60
2023-04-20T17:28:15.261Z,20.35
2023-04-20T17:30:42.544Z,23.48
2023-04-20T17:33:12.347Z,22.88
2023-04-20T17:35:39.639Z,24.20
2023-04-20T17:38:06.870Z,35.90
2023-04-20T17:40:34.634Z,30.27
2023-04-20T17:43:02.771Z,20.02
2023-04-20T17:45:30.011Z,27.85
2023-04-20T17:47:57.255Z,20.73
2023-04-20T17:50:24.726Z,24.23
2023-04-20T17:52:52.059Z,14.45
2023-04-20T17:55:19.410Z,15.93
2023-04-20T17:57:46.711Z,17.98
2023-04-20T18:00:14.153Z,24.13
2023-04-20T18:02:41.544Z,27.38
2023-04-20T18:05:09.323Z,18.70
2023-04-20T18:07:36.498Z,20.13
2023-04-20T18:10:04.281Z,21.27
2023-04-20T18:12:31.623Z,21.45
2023-04-20T18:14:58.985Z,14.60
2023-04-20T18:17:26.187Z,21.25
2023-04-20T18:19:53.811Z,19.27
2023-04-20T18:22:20.991Z,18.85
2023-04-20T18:24:48.229Z,28.13
2023-04-20T18:27:15.925Z,23.33
2023-04-20T18:29:52.560Z,24.15
2023-04-20T18:32:21.541Z,34.95
2023-04-20T18:34:51.882Z,24.42
2023-04-20T18:37:19.095Z,25.23
2023-04-20T18:39:46.453Z,23.55
2023-04-20T18:42:13.874Z,30.63
2023-04-20T18:44:41.352Z,27.60
2023-04-20T18:47:08.589Z,27.55
2023-04-20T18:49:36.422Z,33.90
2023-04-20T18:52:03.830Z,35.78
2023-04-20T18:54:31.031Z,35.85
2023-04-20T18:56:58.368Z,32.45
2023-04-20T18:59:25.521Z,28.10
2023-04-20T19:01:52.874Z,36.20
2023-04-20T19:04:22.233Z,34.97
2023-04-20T19:06:49.563Z,23.88
2023-04-20T19:09:16.823Z,27.95
2023-04-20T19:11:43.968Z,27.25
2023-04-20T19:14:11.558Z,20.75
2023-04-20T19:16:38.792Z,26.70
2023-04-20T19:19:06.005Z,23.55
2023-04-20T19:21:33.254Z,22.40
2023-04-20T19:24:00.462Z,20.80
2023-04-20T19:26:27.864Z,24.17
2023-04-20T19:28:56.912Z,31.13
2023-04-20T19:31:24.285Z,33.25
2023-04-20T19:33:51.689Z,33.92
2023-04-20T19:36:19.574Z,27.98
2023-04-20T19:38:46.870Z,23.10
2023-04-20T19:41:14.180Z,25.98
2023-04-20T19:43:41.811Z,21.88
2023-04-20T19:46:09.900Z,21.50
2023-04-20T19:48:37.163Z,31.38
2023-04-20T19:51:05.807Z,26.73
2023-04-20T19:53:33.364Z,16.98
2023-04-20T19:56:00.966Z,26.98
2023-04-20T19:58:28.190Z,32.90
2023-04-20T20:00:55.900Z,26.88
2023-04-20T20:03:27.452Z,22.40
2023-04-20T20:05:54.947Z,22.33
2023-04-20T20:08:22.113Z,24.73
2023-04-20T20:10:49.238Z,27.25
2023-04-20T20:13:16.479Z,30.17
2023-04-20T20:15:44.650Z,27.67
2023-04-20T20:18:12.533Z,23.03
2023-04-20T20:20:40.032Z,27.83
2023-04-20T20:23:07.625Z,33.30
2023-04-20T20:25:35.354Z,30.17
2023-04-20T20:28:09.897Z,27.15
2023-04-20T20:30:37.122Z,26.67
2023-04-20T20:33:04.477Z,27.73
2023-04-20T20:35:33.328Z,27.23
2023-04-20T20:38:00.984Z,31.23
2023-04-20T20:40:28.313Z,24.60
2023-04-20T20:42:55.532Z,22.23
2023-04-20T20:45:23.477Z,23.87
2023-04-20T20:47:51.128Z,26.07
2023-04-20T20:50:19.543Z,22.27
2023-04-20T20:52:46.902Z,24.55
2023-04-20T20:55:14.109Z,19.43
2023-04-20T20:57:41.658Z,23.07
2023-04-20T21:00:10.397Z,23.33
2023-04-20T21:02:38.071Z,24.03
2023-04-20T21:05:06.298Z,18.37
2023-04-20T21:07:33.478Z,25.30
2023-04-20T21:10:00.992Z,21.77
2023-04-20T21:12:28.252Z,25.57
2023-04-20T21:14:55.520Z,16.10
2023-04-20T21:17:22.744Z,18.57
2023-04-20T21:19:49.956Z,24.93
2023-04-20T21:22:17.366Z,18.50
2023-04-20T21:24:44.583Z,17.07
2023-04-20T21:27:11.931Z,20.83
2023-04-20T21:29:39.188Z,19.50
2023-04-20T21:32:06.404Z,24.00
2023-04-20T21:34:33.727Z,22.03
2023-04-20T21:37:04.191Z,19.90
2023-04-20T21:39:34.429Z,22.97
2023-04-20T21:42:03.240Z,22.20
2023-04-20T21:44:30.740Z,27.57
2023-04-20T21:46:58.009Z,24.23
2023-04-20T21:49:25.229Z,21.03
2023-04-20T21:51:52.383Z,23.13
2023-04-20T21:54:19.759Z,17.23
2023-04-20T21:56:47.004Z,19.00
2023-04-20T21:59:14.487Z,21.20
2023-04-20T22:01:42.039Z,25.27
2023-04-20T22:04:09.659Z,23.40
2023-04-20T22:06:37.054Z,16.20
2023-04-20T22:09:04.735Z,24.57
2023-04-20T22:11:36.392Z,18.30
2023-04-20T22:14:06.699Z,19.60
2023-04-20T22:16:34.009Z,24.93
2023-04-20T22:19:01.471Z,21.47
2023-04-20T22:21:28.794Z,20.17
2023-04-20T22:23:56.150Z,19.40
2023-04-20T22:26:23.394Z,23.03
2023-04-20T22:28:50.900Z,26.33
2023-04-20T22:31:18.147Z,22.23
2023-04-20T22:33:45.378Z,24.43
2023-04-20T22:36:13.195Z,20.87
2023-04-20T22:38:40.493Z,20.13
2023-04-20T22:41:07.758Z,21.73
2023-04-20T22:43:34.914Z,23.93
2023-04-20T22:46:02.098Z,29.47
2023-04-20T22:48:29.337Z,23.53
2023-04-20T22:51:00.716Z,20.30
2023-04-20T22:53:30.191Z,19.23
2023-04-20T22:56:04.559Z,22.90
2023-04-20T22:58:31.849Z,23.60
2023-04-20T23:00:59.502Z,25.90
2023-04-20T23:03:26.946Z,24.60
2023-04-20T23:05:57.284Z,21.77
2023-04-20T23:08:25.526Z,22.73
2023-04-20T23:10:56.186Z,21.13
2023-04-20T23:13:26.327Z,23.93
2023-04-20T23:15:53.821Z,24.33
2023-04-20T23:18:21.451Z,23.07
2023-04-20T23:20:48.648Z,22.70
2023-04-20T23:23:15.822Z,20.03
2023-04-20T23:25:43.015Z,18.67
2023-04-20T23:28:10.402Z,18.63
2023-04-20T23:30:37.867Z,18.30
2023-04-20T23:33:05.000Z,23.97
2023-04-20T23:35:32.837Z,20.87
2023-04-20T23:38:01.013Z,23.17
2023-04-20T23:40:28.323Z,20.50
2023-04-20T23:42:55.726Z,21.60
2023-04-20T23:45:23.161Z,21.83
2023-04-20T23:47:50.532Z,23.13
2023-04-20T23:50:17.785Z,22.93
2023-04-20T23:52:45.094Z,23.20
2023-04-20T23:55:12.257Z,23.10
2023-04-20T23:57:39.479Z,21.27
